createdAt,value
2017-07-24T00:02:22.798Z,4.10
2017-07-24T00:04:50.379Z,5.23
2017-07-24T00:07:17.943Z,6.80
2017-07-24T00:09:45.541Z,4.00
2017-07-24T00:12:13.115Z,7.10
2017-07-24T00:14:40.714Z,3.30
2017-07-24T00:17:08.299Z,5.60
2017-07-24T00:19:35.893Z,6.40
2017-07-24T00:22:03.467Z,4.63
2017-07-24T00:24:31.071Z,4.57
2017-07-24T00:26:58.656Z,8.57
2017-07-24T00:29:26.226Z,3.63
2017-07-24T00:31:53.986Z,5.20
2017-07-24T00:34:21.590Z,10.40
2017-07-24T00:36:49.971Z,5.47
2017-07-24T00:39:17.550Z,5.17
2017-07-24T00:41:45.294Z,4.23
2017-07-24T00:44:12.891Z,7.93
2017-07-24T00:46:40.474Z,3.43
2017-07-24T00:49:08.353Z,5.37
2017-07-24T00:51:35.918Z,7.77
2017-07-24T00:54:03.502Z,3.93
2017-07-24T00:56:32.120Z,4.03
2017-07-24T00:58:59.713Z,5.60
2017-07-24T01:01:27.307Z,8.03
2017-07-24T01:03:54.868Z,5.53
2017-07-24T01:06:23.194Z,4.73
2017-07-24T01:08:50.782Z,5.33
2017-07-24T01:11:18.362Z,9.00
2017-07-24T01:13:45.918Z,7.63
2017-07-24T01:16:14.280Z,6.73
2017-07-24T01:18:41.844Z,3.50
2017-07-24T01:21:09.419Z,7.97
2017-07-24T01:23:36.998Z,4.97
2017-07-24T01:26:05.322Z,4.40
2017-07-24T01:28:34.738Z,7.33
2017-07-24T01:31:02.340Z,5.10
2017-07-24T01:33:29.916Z,5.80
2017-07-24T01:35:57.485Z,5.17
2017-07-24T01:38:25.238Z,3.53
2017-07-24T01:40:52.791Z,10.40
2017-07-24T01:43:20.386Z,3.73
2017-07-24T01:45:47.985Z,3.30
2017-07-24T01:48:15.554Z,5.50
2017-07-24T01:50:43.143Z,7.93
2017-07-24T01:53:10.708Z,5.77
2017-07-24T01:55:38.267Z,6.77
2017-07-24T01:58:05.864Z,7.60
2017-07-24T02:00:33.431Z,5.20
2017-07-24T02:03:01.028Z,6.10
2017-07-24T02:05:28.595Z,3.80
2017-07-24T02:07:57.050Z,4.60
2017-07-24T02:10:24.611Z,4.73
2017-07-24T02:12:52.177Z,8.30
2017-07-24T02:15:19.787Z,6.10
2017-07-24T02:17:47.361Z,7.17
2017-07-24T02:20:14.951Z,5.47
2017-07-24T02:22:42.514Z,7.70
2017-07-24T02:25:10.087Z,4.77
2017-07-24T02:27:37.690Z,4.43
2017-07-24T02:30:05.257Z,5.80
2017-07-24T02:32:32.853Z,10.30
2017-07-24T02:35:00.453Z,4.00
2017-07-24T02:37:28.777Z,7.67
2017-07-24T02:39:56.355Z,5.17
2017-07-24T02:42:23.930Z,3.77
2017-07-24T02:44:51.493Z,5.80
2017-07-24T02:47:19.843Z,6.07
2017-07-24T02:49:47.431Z,7.43
2017-07-24T02:52:15.025Z,6.93
2017-07-24T02:54:42.586Z,9.13
2017-07-24T02:57:10.398Z,6.90
2017-07-24T02:59:37.979Z,8.20
2017-07-24T03:02:05.554Z,4.50
2017-07-24T03:04:33.925Z,7.40
2017-07-24T03:07:02.303Z,9.97
2017-07-24T03:09:30.664Z,5.23
2017-07-24T03:11:58.249Z,7.03
2017-07-24T03:14:26.569Z,9.90
2017-07-24T03:16:54.210Z,5.30
2017-07-24T03:19:21.845Z,7.07
2017-07-24T03:21:49.453Z,9.27
2017-07-24T03:24:17.035Z,4.73
2017-07-24T03:26:44.642Z,5.90
2017-07-24T03:29:13.008Z,6.60
2017-07-24T03:31:40.585Z,6.30
2017-07-24T03:34:08.929Z,7.47
2017-07-24T03:36:36.498Z,8.33
2017-07-24T03:39:04.083Z,4.33
2017-07-24T03:41:32.409Z,6.97
2017-07-24T03:44:00.003Z,13.50
2017-07-24T03:46:27.584Z,8.67
2017-07-24T03:48:55.182Z,6.90
2017-07-24T03:51:22.767Z,6.03
2017-07-24T03:53:50.342Z,4.60
2017-07-24T03:56:17.898Z,6.67
2017-07-24T03:58:46.010Z,8.70
2017-07-24T04:01:13.620Z,8.40
2017-07-24T04:03:41.201Z,10.00
2017-07-24T04:06:08.795Z,9.50
2017-07-24T04:08:36.370Z,9.60
2017-07-24T04:11:03.961Z,6.33
2017-07-24T04:13:31.538Z,5.63
2017-07-24T04:15:59.221Z,7.73
2017-07-24T04:18:27.631Z,7.57
2017-07-24T04:20:55.183Z,9.50
2017-07-24T04:23:22.770Z,10.70
2017-07-24T04:25:50.391Z,7.30
2017-07-24T04:28:18.956Z,6.53
2017-07-24T04:30:46.572Z,5.50
2017-07-24T04:33:14.159Z,8.63
2017-07-24T04:35:41.737Z,6.03
2017-07-24T04:38:09.352Z,11.27
2017-07-24T04:40:36.960Z,11.17
2017-07-24T04:43:04.531Z,6.00
2017-07-24T04:45:32.094Z,11.27
2017-07-24T04:47:59.776Z,5.07
2017-07-24T04:50:29.026Z,8.63
2017-07-24T04:52:56.643Z,9.30
2017-07-24T04:55:24.198Z,10.60
2017-07-24T04:57:52.536Z,8.93
2017-07-24T05:00:20.207Z,7.03
2017-07-24T05:02:47.774Z,8.07
2017-07-24T05:05:15.413Z,6.23
2017-07-24T05:07:42.970Z,9.30
2017-07-24T05:10:10.565Z,5.97
2017-07-24T05:12:38.148Z,9.37
2017-07-24T05:15:06.465Z,6.43
2017-07-24T05:17:34.068Z,6.67
2017-07-24T05:20:01.618Z,8.83
2017-07-24T05:22:29.182Z,6.60
2017-07-24T05:24:56.806Z,10.03
2017-07-24T05:27:24.358Z,9.23
2017-07-24T05:29:51.921Z,7.27
2017-07-24T05:32:19.514Z,8.93
2017-07-24T05:34:47.074Z,12.40
2017-07-24T05:37:14.743Z,8.37
2017-07-24T05:39:42.330Z,6.03
2017-07-24T05:42:10.663Z,8.30
2017-07-24T05:44:38.243Z,9.63
2017-07-24T05:47:05.830Z,9.07
2017-07-24T05:49:34.199Z,8.80
2017-07-24T05:52:01.814Z,9.90
2017-07-24T05:54:29.375Z,13.83
2017-07-24T05:56:56.986Z,8.03
2017-07-24T05:59:24.567Z,8.63
2017-07-24T06:01:52.891Z,10.07
2017-07-24T06:04:20.542Z,9.83
2017-07-24T06:06:48.120Z,12.17
2017-07-24T06:09:15.677Z,10.13
2017-07-24T06:11:43.391Z,8.30
2017-07-24T06:14:11.799Z,7.77
2017-07-24T06:16:40.227Z,11.13
2017-07-24T06:19:07.787Z,9.70
2017-07-24T06:21:35.411Z,9.90
2017-07-24T06:24:02.975Z,10.37
2017-07-24T06:26:30.578Z,9.17
2017-07-24T06:28:58.910Z,10.30
2017-07-24T06:31:26.506Z,10.13
2017-07-24T06:33:54.323Z,10.00
2017-07-24T06:36:21.910Z,8.83
2017-07-24T06:38:49.504Z,6.80
2017-07-24T06:41:17.085Z,7.60
2017-07-24T06:43:45.440Z,8.60
2017-07-24T06:46:13.015Z,11.43
2017-07-24T06:48:40.586Z,10.57
2017-07-24T06:51:09.069Z,10.07
2017-07-24T06:53:36.686Z,9.17
2017-07-24T06:56:04.306Z,7.87
2017-07-24T06:58:31.934Z,9.27
2017-07-24T07:01:00.359Z,11.03
2017-07-24T07:03:27.936Z,12.10
2017-07-24T07:05:55.510Z,15.87
2017-07-24T07:08:23.106Z,8.37
2017-07-24T07:10:51.444Z,8.77
2017-07-24T07:13:19.022Z,12.97
2017-07-24T07:15:46.647Z,7.83
2017-07-24T07:18:14.241Z,12.90
2017-07-24T07:20:41.832Z,7.97
2017-07-24T07:23:10.231Z,12.97
2017-07-24T07:25:37.823Z,11.13
2017-07-24T07:28:05.392Z,8.00
2017-07-24T07:30:32.973Z,7.33
2017-07-24T07:33:00.538Z,9.57
2017-07-24T07:35:28.118Z,7.27
2017-07-24T07:37:56.474Z,5.40
2017-07-24T07:40:24.040Z,7.63
2017-07-24T07:42:51.641Z,6.23
2017-07-24T07:45:19.245Z,7.33
2017-07-24T07:47:46.837Z,7.73
2017-07-24T07:50:14.394Z,6.23
2017-07-24T07:52:42.916Z,5.50
2017-07-24T07:55:10.522Z,5.93
2017-07-24T07:57:38.103Z,6.10
2017-07-24T08:00:06.454Z,6.80
2017-07-24T08:02:34.032Z,6.50
2017-07-24T08:05:01.628Z,7.60
2017-07-24T08:07:29.219Z,6.80
2017-07-24T08:09:56.822Z,5.80
2017-07-24T08:12:24.373Z,6.20
2017-07-24T08:14:52.209Z,9.00
2017-07-24T08:17:19.841Z,8.93
2017-07-24T08:19:47.415Z,6.53
2017-07-24T08:22:14.990Z,6.10
2017-07-24T08:24:42.608Z,8.93
2017-07-24T08:27:10.206Z,11.33
2017-07-24T08:29:37.811Z,8.03
2017-07-24T08:32:05.409Z,5.70
2017-07-24T08:34:32.990Z,8.10
2017-07-24T08:37:00.563Z,4.80
2017-07-24T08:39:28.154Z,11.93
2017-07-24T08:41:55.723Z,7.37
2017-07-24T08:44:23.322Z,6.57
2017-07-24T08:46:51.750Z,8.90
2017-07-24T08:49:19.358Z,7.23
2017-07-24T08:51:46.950Z,6.90
2017-07-24T08:54:14.535Z,9.37
2017-07-24T08:56:42.744Z,6.20
2017-07-24T08:59:10.371Z,5.27
2017-07-24T09:01:37.930Z,6.30
2017-07-24T09:04:05.517Z,6.53
2017-07-24T09:06:33.886Z,5.10
2017-07-24T09:09:01.457Z,5.70
2017-07-24T09:11:29.789Z,5.33
2017-07-24T09:13:57.565Z,4.50
2017-07-24T09:16:25.191Z,4.93
2017-07-24T09:18:52.943Z,8.87
2017-07-24T09:21:21.270Z,8.97
2017-07-24T09:23:48.872Z,5.70
2017-07-24T09:26:17.220Z,5.50
2017-07-24T09:28:44.824Z,5.63
2017-07-24T09:31:12.413Z,4.90
2017-07-24T09:33:40.006Z,8.20
2017-07-24T09:36:07.647Z,8.40
2017-07-24T09:38:35.212Z,5.97
2017-07-24T09:41:02.782Z,6.63
2017-07-24T09:43:30.390Z,8.53
2017-07-24T09:45:57.960Z,5.73
2017-07-24T09:48:27.006Z,5.77
2017-07-24T09:50:54.570Z,5.03
2017-07-24T09:53:22.166Z,4.90
2017-07-24T09:55:49.766Z,5.40
2017-07-24T09:58:17.343Z,6.90
2017-07-24T10:00:44.950Z,4.03
2017-07-24T10:03:12.567Z,5.70
2017-07-24T10:05:40.138Z,7.97
2017-07-24T10:08:07.768Z,6.90
2017-07-24T10:10:35.341Z,4.90
2017-07-24T10:13:03.573Z,6.00
2017-07-24T10:15:31.163Z,8.00
2017-07-24T10:17:59.613Z,4.37
2017-07-24T10:20:33.298Z,4.33
2017-07-24T10:23:01.646Z,4.17
2017-07-24T10:25:29.227Z,4.03
2017-07-24T10:27:59.656Z,3.50
2017-07-24T10:30:28.883Z,4.30
2017-07-24T10:32:57.178Z,3.80
2017-07-24T10:35:26.773Z,7.07
2017-07-24T10:37:54.352Z,4.80
2017-07-24T10:40:21.998Z,5.93
2017-07-24T10:42:49.629Z,4.80
2017-07-24T10:45:17.207Z,4.90
2017-07-24T10:47:44.877Z,4.73
2017-07-24T10:50:16.925Z,5.73
2017-07-24T10:52:44.595Z,6.43
2017-07-24T10:55:12.711Z,6.27
2017-07-24T10:57:40.266Z,5.33
2017-07-24T11:00:07.890Z,8.17
2017-07-24T11:02:35.507Z,4.40
2017-07-24T11:05:03.074Z,5.30
2017-07-24T11:07:30.680Z,4.73
2017-07-24T11:09:58.283Z,4.57
2017-07-24T11:12:26.116Z,6.27
2017-07-24T11:14:53.753Z,7.47
2017-07-24T11:17:22.111Z,5.60
2017-07-24T11:19:49.681Z,6.00
2017-07-24T11:22:17.340Z,5.70
2017-07-24T11:24:44.976Z,5.03
2017-07-24T11:27:12.559Z,6.60
2017-07-24T11:29:40.155Z,10.97
2017-07-24T11:32:08.547Z,10.43
2017-07-24T11:34:36.113Z,15.03
2017-07-24T11:37:03.692Z,17.60
2017-07-24T11:39:31.327Z,16.17
2017-07-24T11:41:59.703Z,13.40
2017-07-24T11:44:28.054Z,13.83
2017-07-24T11:46:55.658Z,15.67
2017-07-24T11:49:23.332Z,15.60
2017-07-24T11:51:50.895Z,15.13
2017-07-24T11:54:18.459Z,13.27
2017-07-24T11:56:46.047Z,10.33
2017-07-24T11:59:13.606Z,7.50
2017-07-24T12:01:41.178Z,4.60
2017-07-24T12:04:08.858Z,5.77
2017-07-24T12:06:36.444Z,6.23
2017-07-24T12:09:04.791Z,5.47
2017-07-24T12:11:32.358Z,3.37
2017-07-24T12:14:00.019Z,3.73
2017-07-24T12:16:27.586Z,4.90
2017-07-24T12:18:55.253Z,3.73
2017-07-24T12:21:23.609Z,4.23
2017-07-24T12:23:51.168Z,6.30
2017-07-24T12:26:18.754Z,6.33
2017-07-24T12:28:47.126Z,6.33
2017-07-24T12:31:14.713Z,7.67
2017-07-24T12:33:43.492Z,9.73
2017-07-24T12:36:11.842Z,6.20
2017-07-24T12:38:39.435Z,5.97
2017-07-24T12:41:07.802Z,4.90
2017-07-24T12:43:35.423Z,6.23
2017-07-24T12:46:03.068Z,5.13
2017-07-24T12:48:30.712Z,4.50
2017-07-24T12:50:58.324Z,6.53
2017-07-24T12:53:25.903Z,5.80
2017-07-24T12:55:53.506Z,4.70
2017-07-24T12:58:21.065Z,9.20
2017-07-24T13:00:48.662Z,5.30
2017-07-24T13:03:16.277Z,4.20
2017-07-24T13:05:43.846Z,8.03
2017-07-24T13:08:11.475Z,16.00
2017-07-24T13:10:39.101Z,6.20
2017-07-24T13:13:06.742Z,5.50
2017-07-24T13:15:34.344Z,5.37
2017-07-24T13:18:02.793Z,6.93
2017-07-24T13:20:30.378Z,6.93
2017-07-24T13:22:57.989Z,4.43
2017-07-24T13:25:25.589Z,8.83
2017-07-24T13:27:53.166Z,5.73
2017-07-24T13:30:20.800Z,5.67
2017-07-24T13:32:48.438Z,5.03
2017-07-24T13:35:16.013Z,6.03
2017-07-24T13:37:43.588Z,5.60
2017-07-24T13:40:12.080Z,5.57
2017-07-24T13:42:39.665Z,6.20
2017-07-24T13:45:07.287Z,4.97
2017-07-24T13:47:36.139Z,4.40
2017-07-24T13:50:03.843Z,5.20
2017-07-24T13:52:31.804Z,5.73
2017-07-24T13:54:59.389Z,5.73
2017-07-24T13:57:26.954Z,5.90
2017-07-24T13:59:56.027Z,4.70
2017-07-24T14:02:23.599Z,4.50
2017-07-24T14:04:51.274Z,5.20
2017-07-24T14:07:18.928Z,6.63
2017-07-24T14:09:46.512Z,4.33
2017-07-24T14:12:14.159Z,4.37
2017-07-24T14:14:41.871Z,5.17
2017-07-24T14:17:10.716Z,5.20
2017-07-24T14:19:38.307Z,5.47
2017-07-24T14:22:05.868Z,5.00
2017-07-24T14:24:33.453Z,6.90
2017-07-24T14:27:01.818Z,6.37
2017-07-24T14:29:30.181Z,7.50
2017-07-24T14:31:57.813Z,8.10
2017-07-24T14:34:25.378Z,8.77
2017-07-24T14:36:52.971Z,11.40
2017-07-24T14:39:21.155Z,13.83
2017-07-24T14:41:49.498Z,13.10
2017-07-24T14:44:17.086Z,14.30
2017-07-24T14:46:44.673Z,67.13
2017-07-24T14:49:12.882Z,16.10
2017-07-24T14:51:40.493Z,10.07
2017-07-24T14:54:08.127Z,11.40
2017-07-24T14:56:35.872Z,12.43
2017-07-24T14:59:03.546Z,16.27
2017-07-24T15:01:31.175Z,13.93
2017-07-24T15:03:58.759Z,11.73
2017-07-24T15:06:26.417Z,16.00
2017-07-24T15:08:54.000Z,13.70
2017-07-24T15:11:21.605Z,16.60
2017-07-24T15:13:49.174Z,12.97
2017-07-24T15:16:16.775Z,10.17
2017-07-24T15:18:44.361Z,9.20
2017-07-24T15:21:11.990Z,12.90
2017-07-24T15:23:39.594Z,15.90
2017-07-24T15:26:07.173Z,16.67
2017-07-24T15:28:34.743Z,19.40
2017-07-24T15:31:02.346Z,17.30
2017-07-24T15:33:29.929Z,13.77
2017-07-24T15:35:57.538Z,14.70
2017-07-24T15:38:25.124Z,11.17
2017-07-24T15:40:52.704Z,8.03
2017-07-24T15:43:20.292Z,6.33
2017-07-24T15:45:47.886Z,7.47
2017-07-24T15:48:15.482Z,7.63
2017-07-24T15:50:47.935Z,6.60
2017-07-24T15:53:15.537Z,7.30
2017-07-24T15:55:43.106Z,7.20
2017-07-24T15:58:10.746Z,8.30
2017-07-24T16:03:39.495Z,8.37
2017-07-24T16:06:07.847Z,9.67
2017-07-24T16:08:36.299Z,10.00
2017-07-24T16:11:04.738Z,7.77
2017-07-24T16:13:33.151Z,6.93
2017-07-24T16:16:06.961Z,10.30
2017-07-24T16:18:38.495Z,8.73
2017-07-24T16:21:06.385Z,6.67
2017-07-24T16:23:34.625Z,10.97
2017-07-24T16:26:02.964Z,8.40
2017-07-24T16:28:30.548Z,9.83
2017-07-24T16:30:58.899Z,8.50
2017-07-24T16:33:26.494Z,8.90
2017-07-24T16:35:55.680Z,7.60
2017-07-24T16:38:24.108Z,7.00
2017-07-24T16:40:51.730Z,7.07
2017-07-24T16:43:19.342Z,7.13
2017-07-24T16:45:46.938Z,6.67
2017-07-24T16:48:14.541Z,7.80
2017-07-24T16:50:42.474Z,9.97
2017-07-24T16:53:10.081Z,9.33
2017-07-24T16:55:37.693Z,11.33
2017-07-24T16:58:05.379Z,12.43
2017-07-24T17:00:33.753Z,12.20
2017-07-24T17:03:10.440Z,17.00
2017-07-24T17:05:38.850Z,20.87
2017-07-24T17:08:06.426Z,13.00
2017-07-24T17:10:33.991Z,14.23
2017-07-24T17:13:01.603Z,13.60
2017-07-24T17:15:29.185Z,16.13
2017-07-24T17:17:56.981Z,14.00
2017-07-24T17:20:24.573Z,12.63
2017-07-24T17:22:52.194Z,13.13
2017-07-24T17:25:19.780Z,10.60
2017-07-24T17:27:47.396Z,14.50
2017-07-24T17:30:15.195Z,10.63
2017-07-24T17:32:42.784Z,10.77
2017-07-24T17:35:10.433Z,8.20
2017-07-24T17:37:38.050Z,9.53
2017-07-24T17:40:05.643Z,10.57
2017-07-24T17:42:33.227Z,11.37
2017-07-24T17:45:00.839Z,12.50
2017-07-24T17:47:28.407Z,9.67
2017-07-24T17:49:55.989Z,8.30
2017-07-24T17:52:23.600Z,11.90
2017-07-24T17:54:51.973Z,10.97
2017-07-24T17:57:20.318Z,10.50
2017-07-24T17:59:48.008Z,10.70
2017-07-24T18:02:15.646Z,16.47
2017-07-24T18:04:43.265Z,10.80
2017-07-24T18:07:10.874Z,10.23
2017-07-24T18:09:38.553Z,9.90
2017-07-24T18:12:06.275Z,10.47
2017-07-24T18:14:33.893Z,11.63
2017-07-24T18:17:01.562Z,10.00
2017-07-24T18:19:29.156Z,13.13
2017-07-24T18:21:56.776Z,12.57
2017-07-24T18:24:24.378Z,8.63
2017-07-24T18:26:51.992Z,8.47
2017-07-24T18:29:19.577Z,10.63
2017-07-24T18:31:47.178Z,7.30
2017-07-24T18:34:14.755Z,9.30
2017-07-24T18:36:42.365Z,10.40
2017-07-24T18:39:09.967Z,8.50
2017-07-24T18:41:37.557Z,8.50
2017-07-24T18:44:05.133Z,11.20
2017-07-24T18:46:32.724Z,8.90
2017-07-24T18:49:00.354Z,9.60
2017-07-24T18:51:28.684Z,9.50
2017-07-24T18:53:56.313Z,8.60
2017-07-24T18:56:24.355Z,8.80
2017-07-24T18:58:51.999Z,8.23
2017-07-24T19:01:19.934Z,7.90
2017-07-24T19:03:47.519Z,9.27
2017-07-24T19:06:15.164Z,9.20
2017-07-24T19:08:42.691Z,6.93
2017-07-24T19:11:10.313Z,11.93
2017-07-24T19:13:37.915Z,6.83
2017-07-24T19:16:05.478Z,8.00
2017-07-24T19:18:33.076Z,8.53
2017-07-24T19:21:00.654Z,6.10
2017-07-24T19:23:28.306Z,11.23
2017-07-24T19:25:55.915Z,11.23
2017-07-24T19:28:23.505Z,10.50
2017-07-24T19:30:51.166Z,7.53
2017-07-24T19:33:18.763Z,8.57
2017-07-24T19:35:46.366Z,7.00
2017-07-24T19:38:14.744Z,7.57
2017-07-24T19:40:42.347Z,8.33
2017-07-24T19:43:09.932Z,10.60
2017-07-24T19:45:37.510Z,8.67
2017-07-24T19:48:05.051Z,7.90
2017-07-24T19:50:32.671Z,9.30
2017-07-24T19:53:00.261Z,7.33
2017-07-24T19:55:27.922Z,9.13
2017-07-24T19:57:55.760Z,8.93
2017-07-24T20:00:23.498Z,11.03
2017-07-24T20:02:51.840Z,10.00
2017-07-24T20:05:19.459Z,10.63
2017-07-24T20:07:47.066Z,11.80
2017-07-24T20:10:14.687Z,16.30
2017-07-24T20:12:42.319Z,9.90
2017-07-24T20:15:10.671Z,14.90
2017-07-24T20:17:38.238Z,10.30
2017-07-24T20:20:05.920Z,11.93
2017-07-24T20:22:33.481Z,13.60
2017-07-24T20:25:01.846Z,15.10
2017-07-24T20:27:29.453Z,10.73
2017-07-24T20:29:57.039Z,13.03
2017-07-24T20:32:24.657Z,10.40
2017-07-24T20:34:53.012Z,12.37
2017-07-24T20:37:20.637Z,14.50
2017-07-24T20:39:48.194Z,13.77
2017-07-24T20:42:15.850Z,13.03
2017-07-24T20:44:43.392Z,12.07
2017-07-24T20:47:10.986Z,18.43
2017-07-24T20:49:38.610Z,11.70
2017-07-24T20:52:06.190Z,12.23
2017-07-24T20:54:34.329Z,14.93
2017-07-24T20:57:02.682Z,17.50
2017-07-24T20:59:30.274Z,16.47
2017-07-24T21:01:58.602Z,11.10
2017-07-24T21:04:26.239Z,13.03
2017-07-24T21:06:53.833Z,11.37
2017-07-24T21:09:21.462Z,14.97
2017-07-24T21:11:49.073Z,14.97
2017-07-24T21:14:18.490Z,13.87
2017-07-24T21:16:46.111Z,15.47
2017-07-24T21:19:13.717Z,14.83
2017-07-24T21:21:41.354Z,14.87
2017-07-24T21:24:08.950Z,21.77
2017-07-24T21:26:37.309Z,13.23
2017-07-24T21:29:04.962Z,15.63
2017-07-24T21:31:32.533Z,15.23
2017-07-24T21:34:00.394Z,17.73
2017-07-24T21:36:28.178Z,17.50
2017-07-24T21:38:55.760Z,17.10
2017-07-24T21:41:23.555Z,16.13
2017-07-24T21:43:52.475Z,17.43
2017-07-24T21:46:20.906Z,16.30
2017-07-24T21:48:48.531Z,17.57
2017-07-24T21:51:16.182Z,23.50
2017-07-24T21:53:43.789Z,19.43
2017-07-24T21:56:11.430Z,13.23
2017-07-24T21:58:39.779Z,17.20
2017-07-24T22:01:07.402Z,14.97
2017-07-24T22:03:34.986Z,21.80
2017-07-24T22:06:02.632Z,21.70
2017-07-24T22:08:30.231Z,19.97
2017-07-24T22:10:57.827Z,18.10
2017-07-24T22:13:25.441Z,17.10
2017-07-24T22:15:53.087Z,13.67
2017-07-24T22:18:20.682Z,16.23
2017-07-24T22:20:48.622Z,14.63
2017-07-24T22:23:16.221Z,19.53
2017-07-24T22:25:43.949Z,16.77
2017-07-24T22:28:11.580Z,15.80
2017-07-24T22:30:39.175Z,17.93
2017-07-24T22:33:06.781Z,16.53
2017-07-24T22:35:35.289Z,14.60
2017-07-24T22:38:02.871Z,18.00
2017-07-24T22:40:31.314Z,20.00
2017-07-24T22:42:59.890Z,17.90
2017-07-24T22:45:27.697Z,21.07
2017-07-24T22:47:55.462Z,19.90
2017-07-24T22:50:23.091Z,15.30
2017-07-24T22:52:52.320Z,21.10
2017-07-24T22:55:19.881Z,18.10
2017-07-24T22:57:47.482Z,20.53
2017-07-24T23:00:15.089Z,19.37
2017-07-24T23:02:42.688Z,21.90
2017-07-24T23:05:10.409Z,18.40
2017-07-24T23:07:37.987Z,18.10
2017-07-24T23:10:05.557Z,19.13
2017-07-24T23:12:33.154Z,18.10
2017-07-24T23:15:00.790Z,19.70
2017-07-24T23:17:28.425Z,23.40
2017-07-24T23:19:55.998Z,19.00
2017-07-24T23:22:23.621Z,25.67
2017-07-24T23:24:51.334Z,19.63
2017-07-24T23:27:18.935Z,19.40
2017-07-24T23:29:46.505Z,20.73
2017-07-24T23:32:14.888Z,19.30
2017-07-24T23:34:43.266Z,20.40
2017-07-24T23:37:11.028Z,28.53
2017-07-24T23:39:38.610Z,23.67
2017-07-24T23:42:06.194Z,21.93
2017-07-24T23:44:33.802Z,22.37
2017-07-24T23:47:01.385Z,23.00
2017-07-24T23:49:29.766Z,26.47
2017-07-24T23:51:57.387Z,27.13
2017-07-24T23:54:25.170Z,22.60
2017-07-24T23:56:52.770Z,24.30
2017-07-24T23:59:20.370Z,23.83
